createdAt,value
2023-04-13T00:00:51.796Z,77.10
2023-04-13T00:03:53.922Z,76.90
2023-04-13T00:06:56.617Z,77.30
2023-04-13T00:09:58.602Z,77.20
2023-04-13T00:13:01.661Z,77.00
2023-04-13T00:16:03.865Z,77.00
2023-04-13T00:19:06.925Z,77.30
2023-04-13T00:22:09.862Z,77.30
2023-04-13T00:25:14.502Z,77.10
2023-04-13T00:28:16.733Z,77.30
2023-04-13T00:31:18.864Z,77.40
2023-04-13T00:34:21.334Z,77.40
2023-04-13T00:37:23.551Z,77.80
2023-04-13T00:40:28.308Z,77.70
2023-04-13T00:43:30.302Z,77.70
2023-04-13T00:46:32.447Z,77.90
2023-04-13T00:49:35.626Z,78.00
2023-04-13T00:52:38.447Z,77.70
2023-04-13T00:55:42.931Z,77.80
2023-04-13T00:58:45.709Z,77.80
2023-04-13T01:01:50.738Z,77.90
2023-04-13T01:04:57.602Z,78.10
2023-04-13T01:08:18.859Z,78.10
2023-04-13T01:11:54.918Z,77.90
2023-04-13T01:15:08.935Z,78.00
2023-04-13T01:18:12.571Z,78.30
2023-04-13T01:21:18.193Z,78.10
2023-04-13T01:25:02.498Z,78.00
2023-04-13T01:28:07.746Z,78.00
2023-04-13T01:31:13.628Z,78.20
2023-04-13T01:34:16.272Z,78.40
2023-04-13T01:37:19.605Z,78.40
2023-04-13T01:40:22.894Z,78.20
2023-04-13T01:43:27.752Z,77.90
2023-04-13T01:46:35.094Z,78.00
2023-04-13T01:49:37.539Z,77.90
2023-04-13T01:52:41.626Z,78.20
2023-04-13T01:55:44.891Z,78.10
2023-04-13T01:58:56.350Z,78.20
2023-04-13T02:01:59.590Z,78.00
2023-04-13T02:05:01.675Z,78.10
2023-04-13T02:08:09.905Z,78.40
2023-04-13T02:11:16.032Z,78.30
2023-04-13T02:14:18.036Z,78.40
2023-04-13T02:17:20.027Z,78.30
2023-04-13T02:20:23.912Z,78.30
2023-04-13T02:23:26.879Z,78.50
2023-04-13T02:26:28.894Z,78.00
2023-04-13T02:29:30.983Z,78.30
2023-04-13T02:32:33.635Z,77.80
2023-04-13T02:35:38.935Z,77.30
2023-04-13T02:38:42.284Z,77.40
2023-04-13T02:41:44.338Z,76.90
2023-04-13T02:44:46.722Z,77.00
2023-04-13T02:47:49.251Z,77.10
2023-04-13T02:50:52.089Z,77.10
2023-04-13T02:53:57.839Z,77.00
2023-04-13T02:57:01.869Z,76.40
2023-04-13T03:00:10.416Z,76.50
2023-04-13T03:03:12.505Z,76.50
2023-04-13T03:06:14.558Z,76.40
2023-04-13T03:09:17.906Z,76.30
2023-04-13T03:12:20.429Z,76.60
2023-04-13T03:15:23.189Z,76.30
2023-04-13T03:18:25.267Z,76.50
2023-04-13T03:21:27.253Z,76.50
2023-04-13T03:24:29.416Z,76.70
2023-04-13T03:27:31.439Z,76.80
2023-04-13T03:30:33.457Z,76.70
2023-04-13T03:33:35.485Z,76.70
2023-04-13T03:36:37.489Z,76.90
2023-04-13T03:39:39.588Z,76.90
2023-04-13T03:42:41.680Z,77.10
2023-04-13T03:45:43.742Z,77.60
2023-04-13T03:48:45.816Z,77.60
2023-04-13T03:51:51.011Z,77.70
2023-04-13T03:54:53.055Z,77.30
2023-04-13T03:57:55.730Z,77.60
2023-04-13T04:00:58.749Z,77.60
2023-04-13T04:04:02.222Z,77.70
2023-04-13T04:07:05.179Z,77.30
2023-04-13T04:10:09.127Z,77.60
2023-04-13T04:13:11.151Z,77.80
2023-04-13T04:16:13.300Z,77.90
2023-04-13T04:19:15.368Z,77.90
2023-04-13T04:22:17.420Z,78.30
2023-04-13T04:25:22.614Z,78.40
2023-04-13T04:28:24.631Z,78.50
2023-04-13T04:31:27.126Z,78.70
2023-04-13T04:34:30.031Z,78.80
2023-04-13T04:37:37.713Z,78.90
2023-04-13T04:40:45.257Z,78.90
2023-04-13T04:43:47.336Z,78.90
2023-04-13T04:46:52.532Z,79.30
2023-04-13T04:49:54.563Z,79.20
2023-04-13T04:52:56.660Z,79.20
2023-04-13T04:55:58.604Z,79.30
2023-04-13T04:59:00.841Z,79.50
2023-04-13T05:02:03.125Z,79.40
2023-04-13T05:05:07.133Z,78.90
2023-04-13T05:08:09.539Z,79.10
2023-04-13T05:11:11.840Z,79.40
2023-04-13T05:14:13.847Z,79.30
2023-04-13T05:17:19.818Z,79.30
2023-04-13T05:20:21.907Z,79.20
2023-04-13T05:23:23.997Z,79.40
2023-04-13T05:26:27.381Z,79.70
2023-04-13T05:29:29.996Z,79.70
2023-04-13T05:32:34.818Z,80.00
2023-04-13T05:35:37.655Z,80.10
2023-04-13T05:38:39.780Z,79.80
2023-04-13T05:41:42.437Z,79.70
2023-04-13T05:44:44.420Z,80.10
2023-04-13T05:47:46.521Z,80.00
2023-04-13T05:50:49.630Z,80.20
2023-04-13T05:53:52.440Z,80.60
2023-04-13T05:56:54.451Z,80.30
2023-04-13T05:59:56.548Z,80.40
2023-04-13T06:03:01.423Z,80.40
2023-04-13T06:06:04.922Z,80.60
2023-04-13T06:09:07.130Z,80.60
2023-04-13T06:12:09.194Z,80.90
2023-04-13T06:15:11.543Z,81.70
2023-04-13T06:18:13.701Z,80.80
2023-04-13T06:21:15.984Z,80.70
2023-04-13T06:24:18.287Z,80.50
2023-04-13T06:27:20.388Z,80.50
2023-04-13T06:30:22.524Z,80.00
2023-04-13T06:33:28.154Z,79.20
2023-04-13T06:36:31.031Z,78.40
2023-04-13T06:39:37.766Z,77.70
2023-04-13T06:42:44.013Z,78.00
2023-04-13T06:45:48.964Z,75.90
2023-04-13T06:48:51.064Z,75.10
2023-04-13T06:51:53.073Z,73.20
2023-04-13T06:54:55.133Z,71.10
2023-04-13T06:57:57.191Z,71.30
2023-04-13T07:00:59.318Z,69.30
2023-04-13T07:04:02.908Z,68.80
2023-04-13T07:07:05.352Z,66.70
2023-04-13T07:10:08.117Z,67.20
2023-04-13T07:13:10.213Z,65.80
2023-04-13T07:16:12.473Z,66.20
2023-04-13T07:19:14.679Z,64.20
2023-04-13T07:22:17.345Z,62.50
2023-04-13T07:25:19.513Z,61.10
2023-04-13T07:28:21.790Z,62.40
2023-04-13T07:31:23.959Z,59.90
2023-04-13T07:34:26.532Z,59.20
2023-04-13T07:37:28.711Z,60.70
2023-04-13T07:40:31.229Z,57.20
2023-04-13T07:43:35.427Z,55.80
2023-04-13T07:46:38.183Z,54.50
2023-04-13T07:49:40.356Z,55.50
2023-04-13T07:52:42.813Z,51.30
2023-04-13T07:55:45.370Z,49.80
2023-04-13T07:58:50.334Z,48.60
2023-04-13T08:01:53.199Z,48.00
2023-04-13T08:04:55.400Z,47.20
2023-04-13T08:07:57.514Z,47.40
2023-04-13T08:11:00.506Z,45.80
2023-04-13T08:14:02.763Z,47.80
2023-04-13T08:17:06.297Z,45.50
2023-04-13T08:20:15.052Z,46.70
2023-04-13T08:23:17.066Z,46.90
2023-04-13T08:26:20.728Z,45.60
2023-04-13T08:29:24.254Z,46.60
2023-04-13T08:32:26.766Z,48.10
2023-04-13T08:35:29.027Z,47.70
2023-04-13T08:38:34.138Z,49.00
2023-04-13T08:41:39.849Z,51.00
2023-04-13T08:44:43.440Z,52.20
2023-04-13T08:47:45.707Z,54.50
2023-04-13T08:50:47.950Z,56.00
2023-04-13T08:53:53.713Z,58.20
2023-04-13T08:56:57.915Z,58.20
2023-04-13T09:00:01.615Z,58.40
2023-04-13T09:03:10.360Z,55.70
2023-04-13T09:06:14.986Z,52.00
2023-04-13T09:09:20.808Z,47.90
2023-04-13T09:12:22.717Z,46.10
2023-04-13T09:15:25.141Z,42.90
2023-04-13T09:18:27.576Z,41.20
2023-04-13T09:21:40.584Z,39.60
2023-04-13T09:24:42.758Z,36.40
2023-04-13T09:27:44.885Z,37.40
2023-04-13T09:30:48.012Z,36.20
2023-04-13T09:33:52.185Z,35.90
2023-04-13T09:36:56.699Z,35.40
2023-04-13T09:40:18.965Z,36.80
2023-04-13T09:43:21.105Z,37.40
2023-04-13T09:46:23.177Z,36.00
2023-04-13T09:49:25.986Z,37.50
2023-04-13T09:52:28.043Z,38.80
2023-04-13T09:55:30.704Z,37.20
2023-04-13T09:58:32.825Z,37.00
2023-04-13T10:01:35.657Z,38.40
2023-04-13T10:04:37.938Z,40.40
2023-04-13T10:07:44.243Z,38.40
2023-04-13T10:10:49.622Z,39.60
2023-04-13T10:13:56.398Z,40.00
2023-04-13T10:17:13.772Z,38.80
2023-04-13T10:20:16.549Z,38.60
2023-04-13T10:23:19.811Z,38.40
2023-04-13T10:26:31.926Z,35.70
2023-04-13T10:29:35.338Z,35.50
2023-04-13T10:32:37.470Z,35.10
2023-04-13T10:35:43.401Z,37.30
2023-04-13T10:38:47.038Z,36.50
2023-04-13T10:42:10.873Z,36.00
2023-04-13T10:45:27.321Z,33.80
2023-04-13T10:48:29.410Z,35.10
2023-04-13T10:51:42.574Z,33.80
2023-04-13T10:54:45.432Z,33.30
2023-04-13T10:57:47.628Z,34.50
2023-04-13T11:00:57.054Z,36.30
2023-04-13T11:04:06.872Z,38.70
2023-04-13T11:07:19.089Z,37.70
2023-04-13T11:10:28.608Z,39.70
2023-04-13T11:13:32.551Z,40.40
2023-04-13T11:16:45.182Z,42.10
2023-04-13T11:19:53.897Z,42.50
2023-04-13T11:22:57.693Z,41.40
2023-04-13T11:26:04.844Z,38.50
2023-04-13T11:29:18.998Z,37.20
2023-04-13T11:32:21.200Z,37.50
2023-04-13T11:35:26.264Z,35.50
2023-04-13T11:38:31.321Z,35.80
2023-04-13T11:41:40.587Z,38.40
2023-04-13T11:44:45.682Z,39.60
2023-04-13T11:47:48.439Z,40.80
2023-04-13T11:50:50.940Z,41.70
2023-04-13T11:53:53.597Z,43.50
2023-04-13T11:56:55.942Z,44.20
2023-04-13T11:59:58.054Z,44.50
2023-04-13T12:03:02.547Z,46.50
2023-04-13T12:06:05.877Z,46.80
2023-04-13T12:09:13.418Z,47.30
2023-04-13T12:15:43.654Z,48.60
2023-04-13T12:18:50.026Z,48.00
2023-04-13T12:21:56.481Z,48.90
2023-04-13T12:24:59.556Z,49.70
2023-04-13T12:28:03.758Z,50.40
2023-04-13T12:31:12.460Z,51.70
2023-04-13T12:34:14.643Z,51.00
2023-04-13T12:37:17.677Z,51.30
2023-04-13T12:40:20.736Z,51.10
2023-04-13T12:43:23.328Z,51.10
2023-04-13T12:46:26.727Z,50.60
2023-04-13T12:49:28.970Z,49.30
2023-04-13T12:52:32.513Z,52.30
2023-04-13T12:55:34.564Z,50.20
2023-04-13T12:58:36.615Z,50.30
2023-04-13T13:01:38.775Z,49.00
2023-04-13T13:04:41.522Z,48.60
2023-04-13T13:07:44.114Z,49.40
2023-04-13T13:10:46.156Z,50.60
2023-04-13T13:13:48.402Z,52.40
2023-04-13T13:16:50.619Z,52.40
2023-04-13T13:19:53.126Z,53.20
2023-04-13T13:22:55.559Z,53.40
2023-04-13T13:29:06.580Z,55.50
2023-04-13T13:32:09.340Z,55.70
2023-04-13T13:35:11.768Z,55.80
2023-04-13T13:38:14.228Z,57.10
2023-04-13T13:41:16.460Z,55.90
2023-04-13T13:44:18.639Z,57.00
2023-04-13T13:47:20.695Z,58.60
2023-04-13T13:50:23.053Z,58.50
2023-04-13T13:53:25.442Z,59.00
2023-04-13T13:56:27.486Z,59.90
2023-04-13T13:59:29.586Z,61.50
2023-04-13T14:02:31.742Z,57.90
2023-04-13T14:05:35.313Z,58.00
2023-04-13T14:08:37.598Z,58.50
2023-04-13T14:11:39.787Z,59.00
2023-04-13T14:14:41.828Z,58.20
2023-04-13T14:17:46.711Z,57.90
2023-04-13T14:20:53.288Z,57.20
2023-04-13T14:23:55.324Z,57.10
2023-04-13T14:26:57.462Z,56.90
2023-04-13T14:29:59.761Z,56.20
2023-04-13T14:33:02.148Z,56.20
2023-04-13T14:36:04.494Z,56.90
2023-04-13T14:39:07.022Z,58.80
2023-04-13T14:42:11.203Z,57.10
2023-04-13T14:45:14.767Z,57.70
2023-04-13T14:48:17.756Z,57.50
2023-04-13T14:51:19.822Z,57.40
2023-04-13T14:54:22.051Z,58.60
2023-04-13T14:57:24.670Z,58.30
2023-04-13T15:00:38.829Z,59.20
2023-04-13T15:03:41.474Z,58.90
2023-04-13T15:06:43.882Z,59.90
2023-04-13T15:09:45.950Z,60.10
2023-04-13T15:12:48.446Z,60.00
2023-04-13T15:15:52.186Z,59.90
2023-04-13T15:18:54.337Z,60.00
2023-04-13T15:21:56.445Z,60.50
2023-04-13T15:24:58.458Z,59.80
2023-04-13T15:28:00.523Z,59.90
2023-04-13T15:31:02.682Z,59.00
2023-04-13T15:34:08.540Z,59.30
2023-04-13T15:37:10.833Z,60.30
2023-04-13T15:40:13.163Z,58.20
2023-04-13T15:43:16.283Z,58.30
2023-04-13T15:46:18.293Z,59.50
2023-04-13T15:49:20.412Z,59.00
2023-04-13T15:52:22.425Z,59.10
2023-04-13T15:55:24.712Z,60.20
2023-04-13T15:58:26.781Z,60.40
2023-04-13T16:01:28.894Z,60.10
2023-04-13T16:04:31.432Z,60.80
2023-04-13T16:07:33.820Z,60.60
2023-04-13T16:10:37.212Z,61.20
2023-04-13T16:13:48.199Z,60.70
2023-04-13T16:17:00.051Z,60.50
2023-04-13T16:20:25.783Z,61.00
2023-04-13T16:23:29.256Z,62.10
2023-04-13T16:26:31.348Z,62.00
2023-04-13T16:29:33.798Z,62.60
2023-04-13T16:32:35.982Z,63.10
2023-04-13T16:35:38.125Z,62.90
2023-04-13T16:38:41.694Z,63.60
2023-04-13T16:41:43.987Z,63.80
2023-04-13T16:44:46.176Z,66.00
2023-04-13T16:47:51.405Z,66.30
2023-04-13T16:51:03.501Z,64.60
2023-04-13T16:54:11.627Z,62.30
2023-04-13T16:57:13.711Z,63.00
2023-04-13T17:00:18.294Z,62.00
2023-04-13T17:03:20.555Z,62.00
2023-04-13T17:06:22.790Z,62.60
2023-04-13T17:09:24.876Z,62.30
2023-04-13T17:12:27.692Z,63.00
2023-04-13T17:15:29.665Z,63.40
2023-04-13T17:18:31.894Z,63.60
2023-04-13T17:21:34.115Z,65.00
2023-04-13T17:24:36.752Z,64.70
2023-04-13T17:27:38.810Z,64.80
2023-04-13T17:30:40.800Z,64.90
2023-04-13T17:33:48.273Z,65.10
2023-04-13T17:36:52.405Z,65.50
2023-04-13T17:39:54.498Z,65.00
2023-04-13T17:42:57.177Z,65.70
2023-04-13T17:45:59.384Z,65.20
2023-04-13T17:49:01.889Z,64.20
2023-04-13T17:52:04.358Z,65.20
2023-04-13T17:55:06.717Z,65.20
2023-04-13T17:58:10.769Z,65.00
2023-04-13T18:01:14.613Z,65.10
2023-04-13T18:04:18.074Z,66.30
2023-04-13T18:07:21.905Z,66.30
2023-04-13T18:10:24.736Z,66.50
2023-04-13T18:13:28.113Z,65.30
2023-04-13T18:16:31.910Z,66.10
2023-04-13T18:19:34.840Z,66.40
2023-04-13T18:22:37.113Z,67.50
2023-04-13T18:25:40.069Z,66.90
2023-04-13T18:28:42.212Z,67.20
2023-04-13T18:32:05.638Z,67.40
2023-04-13T18:35:08.014Z,67.80
2023-04-13T18:38:10.601Z,68.10
2023-04-13T18:41:13.329Z,68.90
2023-04-13T18:44:15.571Z,69.20
2023-04-13T18:47:19.389Z,70.20
2023-04-13T18:50:22.798Z,70.60
2023-04-13T18:53:24.954Z,71.10
2023-04-13T18:56:26.912Z,71.50
2023-04-13T18:59:31.258Z,72.00
2023-04-13T19:02:33.420Z,72.70
2023-04-13T19:05:35.806Z,73.00
2023-04-13T19:08:38.583Z,73.60
2023-04-13T19:12:07.279Z,73.60
2023-04-13T19:15:09.564Z,74.70
2023-04-13T19:18:11.634Z,75.10
2023-04-13T19:21:13.616Z,75.20
2023-04-13T19:24:17.430Z,76.20
2023-04-13T19:27:19.495Z,76.30
2023-04-13T19:30:21.627Z,77.50
2023-04-13T19:33:23.709Z,77.20
2023-04-13T19:36:26.181Z,77.20
2023-04-13T19:39:28.938Z,77.50
2023-04-13T19:42:31.425Z,77.80
2023-04-13T19:45:33.527Z,77.70
2023-04-13T19:48:36.363Z,77.50
2023-04-13T19:51:38.911Z,77.30
2023-04-13T19:54:41.060Z,77.30
2023-04-13T19:57:43.333Z,77.60
2023-04-13T20:00:47.493Z,78.20
2023-04-13T20:03:49.658Z,77.50
2023-04-13T20:06:51.862Z,77.70
2023-04-13T20:09:54.820Z,77.20
2023-04-13T20:12:56.880Z,77.30
2023-04-13T20:15:59.068Z,78.00
2023-04-13T20:19:01.725Z,77.80
2023-04-13T20:22:04.910Z,78.10
2023-04-13T20:25:07.981Z,78.50
2023-04-13T20:28:10.542Z,78.60
2023-04-13T20:31:13.057Z,78.80
2023-04-13T20:34:15.610Z,78.50
2023-04-13T20:37:18.554Z,78.40
2023-04-13T20:40:27.121Z,79.00
2023-04-13T20:43:29.753Z,79.00
2023-04-13T20:46:35.360Z,79.00
2023-04-13T20:49:37.856Z,78.90
2023-04-13T20:52:42.060Z,78.80
2023-04-13T20:55:44.318Z,79.10
2023-04-13T20:58:47.400Z,79.00
2023-04-13T21:01:49.733Z,79.50
2023-04-13T21:04:54.403Z,79.30
2023-04-13T21:07:57.188Z,79.00
2023-04-13T21:10:59.351Z,79.30
2023-04-13T21:14:01.908Z,78.80
2023-04-13T21:17:05.906Z,79.00
2023-04-13T21:20:09.235Z,79.20
2023-04-13T21:23:11.338Z,79.40
2023-04-13T21:26:13.534Z,79.60
2023-04-13T21:29:20.098Z,79.60
2023-04-13T21:32:22.446Z,79.90
2023-04-13T21:35:24.443Z,79.80
2023-04-13T21:38:26.469Z,79.80
2023-04-13T21:41:28.558Z,80.10
2023-04-13T21:44:31.335Z,80.30
2023-04-13T21:47:33.424Z,80.10
2023-04-13T21:50:35.478Z,80.30
2023-04-13T21:53:38.905Z,80.20
2023-04-13T21:56:41.999Z,80.90
2023-04-13T21:59:46.652Z,80.90
2023-04-13T22:02:49.714Z,80.30
2023-04-13T22:05:52.875Z,80.90
2023-04-13T22:08:55.141Z,80.60
2023-04-13T22:11:59.258Z,80.50
2023-04-13T22:15:01.277Z,80.90
2023-04-13T22:18:03.682Z,80.80
2023-04-13T22:21:07.135Z,81.30
2023-04-13T22:24:09.269Z,81.60
2023-04-13T22:27:11.667Z,82.00
2023-04-13T22:30:13.988Z,82.40
2023-04-13T22:33:16.232Z,82.70
2023-04-13T22:36:20.213Z,83.00
2023-04-13T22:39:23.196Z,83.50
2023-04-13T22:42:25.532Z,83.40
2023-04-13T22:45:27.557Z,84.00
2023-04-13T22:48:30.007Z,84.40
2023-04-13T22:51:39.153Z,84.60
2023-04-13T22:54:41.173Z,85.30
2023-04-13T22:57:47.809Z,85.90
2023-04-13T23:00:49.930Z,86.10
2023-04-13T23:03:52.157Z,86.00
2023-04-13T23:06:56.769Z,86.00
2023-04-13T23:09:58.852Z,86.00
2023-04-13T23:13:00.953Z,86.30
2023-04-13T23:16:03.148Z,86.50
2023-04-13T23:19:05.297Z,86.80
2023-04-13T23:22:07.431Z,87.00
2023-04-13T23:25:09.711Z,88.00
2023-04-13T23:28:11.667Z,87.20
2023-04-13T23:31:14.797Z,87.20
2023-04-13T23:34:16.951Z,87.30
2023-04-13T23:37:19.034Z,87.50
2023-04-13T23:40:23.176Z,87.70
2023-04-13T23:43:26.794Z,87.90
2023-04-13T23:46:30.410Z,88.30
2023-04-13T23:49:32.979Z,88.80
2023-04-13T23:52:35.035Z,88.90
2023-04-13T23:55:37.572Z,89.10
2023-04-13T23:58:39.553Z,89.10
